BIRK

Reykjavik Airport

Reykjavik, Iceland

BIRK 102300Z 11003KT CAVOK M09/M15 Q1006

Observed Flight Rules
Dec-10 @ 23:00 UTC (an hour ago) Visual Flight Rules
Wind Visibility Clouds
110° at 3 knots 10,000+ meters
  • Clear skies
Temperatures Readings
Current -9°C / 16°F
Dewpoint -15°C / 5°F
Humidity 62%
Altimeter 29.7" Hg
Pressure 1006 hPa
Elevation 61
Observed Flight Rules
Dec-10 @ 23:00 UTC
(an hour ago)
VFR
Wind Visibility
110° at 3 knots 10,000+ meters
Clouds
  • Clear skies
Temperature Dewpoint
-9°C / 16°F -15°C / 5°F
Humidity Altimeter Pressure
62% 29.7" Hg 1006 hPa